VOMD

Details ICAO VOMD (IXM)
Name MADURAI
Region India
Timezone Asia/Kolkata (UTC+5.5)
Plans Departing 14
Arriving 13
Stats Elevation 459 ft / 140 m (AMSL)
Location 9.835570° 78.090406°
Runways 2
Magnetic Variation 1.691° W
Sunrise 2017-12-19 00:59:30 UTC / 2017-12-19 06:29:30 Local
Sunset 2017-12-19 12:32:27 UTC / 2017-12-19 18:02:27 Local
Advertisement - Login to hide

Runways

ID Width Length Bearing (true) Bearing (mag) Surface Threshold Offset Overrun Length
09 148 ft / 45 m 5,993 ft / 1,827 m 86.19° 87.88° Asphalt 0 ft / 0 m 190 ft / 58 m
13 148 ft / 45 m 4,795 ft / 1,462 m 126.57° 128.26° Concrete 0 ft / 0 m 0 ft / 0 m
27 148 ft / 45 m 5,993 ft / 1,827 m 266.19° 267.88° Asphalt 203 ft / 62 m 190 ft / 58 m
31 148 ft / 45 m 4,795 ft / 1,462 m 306.57° 308.26° Concrete 0 ft / 0 m 0 ft / 0 m

Map

Weather


0- 5 10 15 20 25 30 35+ Temperature / ° C

Clouds and Precipitation
Forecast for 2017-12-19 00:00 UTC. Updated 2 hours ago

Ground ~20,000 ft ~40,000 ft Winds

METAR

Not found

TAF

TAF VOMD 181100Z 1812/1918 02005KT 4000 HZ SCT018 SCT100 TEMPO 1900/1903 3000 BR FEW020 BECMG 1906/1907 04010KT 6000 BECMG 1912/1913 02005KT 4000 HZ

Frequencies

Tower 122.80 MHz TWR
Approach 122.80 MHz APP
Warning: Do not use this data for real-world aviation or navigation. No guarantee of current accuracy is given.